KTCL/TCL METAR and TAF weather

Enter ICAO airport designator
Station Type Date Time Source
KTCL METAR 2021/02/27 08:53 UTC NOAA

KTCL 270853Z AUTO 19007KT 10SM FEW015 19/18 A3005 RMK AO2 SLP173 T01940183 50008


Station Type Date Time Source
KTCL Decoded METAR 2021/02/27 08:53 UTC NOAA

TUSCALOOSA REGIONAL AIRPORT, AL, United States (KTCL) 33-13N 087-37W
Feb 27, 2021 - 03:53 AM EST / 2021.02.27 0853 UTC
Wind: from the S (190 degrees) at 8 MPH (7 KT):0
Visibility: 10 mile(s):0
Sky conditions: mostly clear
Temperature: 66.9 F (19.4 C)
Dew Point: 64.9 F (18.3 C)
Relative Humidity: 93%
Pressure (altimeter): 30.05 in. Hg (1017 hPa)
Pressure tendency: 0.02 inches (0.8 hPa) higher than three hours ago
ob: KTCL 270853Z AUTO 19007KT 10SM FEW015 19/18 A3005 RMK AO2 SLP173 T01940183 50008
cycle: 9

Station Type Date Time Source
KTCL TAF 2021/02/27 06:22 UTC NOAA

TAF KTCL 270520Z 2706/2806 10010KT P6SM BKN250
FM270700 19009KT P6SM BKN018
FM271700 19012KT P6SM BKN027
FM271800 19012KT P6SM BKN035
FM280400 17009KT P6SM BKN022

Example: see airport list